Brisbane - Nearby METAR Reports

YBBN - Brisbane Intl Ar, Australia
Distance from station: NNE 11km
Updated: 21/04/2021 06:30
Clear
Clear
 Wind from N
Wind: N 7 km/h
Temperature: 16°C
Dew Point: 14°C
Humidity: 88%
Barometer: 1014 hPa
Summary: Clear
Visibility: greater than 10 km
2021/04/20 20:30 YBBN 202030Z 35004KT CAVOK 16/14 Q1014
YAMB - Amberley, Australia
Distance from station: WSW 42km
Updated: 21/04/2021 06:30
Clear
Clear
 Wind from S
Wind: S 9 km/h
Temperature: 11°C
Dew Point: 10°C
Humidity: 94%
Barometer: 1014 hPa
Summary: Clear
Visibility: greater than 10 km
2021/04/20 20:30 YAMB 202030Z 18005KT CAVOK 11/10 Q1014
 
YBCG - Coolangatta Aws, Australia
Distance from station: SSE 102km
Updated: 21/04/2021 06:30
Clear
Clear
 Wind from NNW
Wind: NNW 24 km/h
Temperature: 20°C
Dew Point: 13°C
Humidity: 64%
Barometer: 1013 hPa
Clouds: Clear
Visibility: 10 km
2021/04/20 20:30 YBCG 202030Z AUTO 33013KT 9999 // NCD 20/13 Q1013 RF00.0/000.0